sensor_id;sensor_type;location;lat;lon;timestamp;P1;durP1;ratioP1;P2;durP2;ratioP2
19505;SDS011;9894;50.852;-0.140;2023-08-08T00:01:39;0.20;;;0.20;;
19505;SDS011;9894;50.852;-0.140;2023-08-08T00:04:08;0.10;;;0.10;;
19505;SDS011;9894;50.852;-0.140;2023-08-08T00:06:35;0.10;;;0.10;;
19505;SDS011;9894;50.852;-0.140;2023-08-08T00:09:01;0.10;;;0.10;;
19505;SDS011;9894;50.852;-0.140;2023-08-08T00:11:28;0.10;;;0.10;;
19505;SDS011;9894;50.852;-0.140;2023-08-08T00:13:55;0.22;;;0.20;;
19505;SDS011;9894;50.852;-0.140;2023-08-08T00:16:21;0.10;;;0.10;;
19505;SDS011;9894;50.852;-0.140;2023-08-08T00:18:48;0.13;;;0.13;;
19505;SDS011;9894;50.852;-0.140;2023-08-08T00:21:19;0.10;;;0.10;;
19505;SDS011;9894;50.852;-0.140;2023-08-08T00:23:45;0.10;;;0.10;;
19505;SDS011;9894;50.852;-0.140;2023-08-08T00:26:11;0.10;;;0.10;;
19505;SDS011;9894;50.852;-0.140;2023-08-08T00:28:38;4.85;;;0.52;;
19505;SDS011;9894;50.852;-0.140;2023-08-08T00:31:04;0.10;;;0.10;;
19505;SDS011;9894;50.852;-0.140;2023-08-08T00:33:30;0.10;;;0.10;;
19505;SDS011;9894;50.852;-0.140;2023-08-08T00:35:56;0.10;;;0.10;;
19505;SDS011;9894;50.852;-0.140;2023-08-08T00:38:22;0.20;;;0.20;;
19505;SDS011;9894;50.852;-0.140;2023-08-08T00:40:48;0.43;;;0.43;;
19505;SDS011;9894;50.852;-0.140;2023-08-08T00:43:14;0.10;;;0.10;;
19505;SDS011;9894;50.852;-0.140;2023-08-08T00:45:41;0.10;;;0.10;;
19505;SDS011;9894;50.852;-0.140;2023-08-08T00:48:08;0.10;;;0.10;;
19505;SDS011;9894;50.852;-0.140;2023-08-08T00:50:35;0.20;;;0.20;;
19505;SDS011;9894;50.852;-0.140;2023-08-08T00:53:02;0.10;;;0.10;;
19505;SDS011;9894;50.852;-0.140;2023-08-08T00:55:28;0.10;;;0.10;;
19505;SDS011;9894;50.852;-0.140;2023-08-08T00:57:55;0.10;;;0.10;;
19505;SDS011;9894;50.852;-0.140;2023-08-08T01:00:21;0.30;;;0.30;;
19505;SDS011;9894;50.852;-0.140;2023-08-08T01:02:47;0.10;;;0.10;;
19505;SDS011;9894;50.852;-0.140;2023-08-08T01:05:13;0.10;;;0.10;;
19505;SDS011;9894;50.852;-0.140;2023-08-08T01:07:52;0.10;;;0.10;;
19505;SDS011;9894;50.852;-0.140;2023-08-08T01:10:29;0.10;;;0.10;;
19505;SDS011;9894;50.852;-0.140;2023-08-08T01:13:00;0.10;;;0.10;;
19505;SDS011;9894;50.852;-0.140;2023-08-08T01:15:27;0.10;;;0.10;;
19505;SDS011;9894;50.852;-0.140;2023-08-08T01:17:57;0.10;;;0.10;;
19505;SDS011;9894;50.852;-0.140;2023-08-08T01:20:23;0.10;;;0.10;;
19505;SDS011;9894;50.852;-0.140;2023-08-08T01:25:16;0.10;;;0.10;;
19505;SDS011;9894;50.852;-0.140;2023-08-08T01:27:42;0.10;;;0.10;;
19505;SDS011;9894;50.852;-0.140;2023-08-08T01:30:09;0.10;;;0.10;;
19505;SDS011;9894;50.852;-0.140;2023-08-08T01:32:36;0.10;;;0.10;;
19505;SDS011;9894;50.852;-0.140;2023-08-08T01:35:02;0.20;;;0.20;;
19505;SDS011;9894;50.852;-0.140;2023-08-08T01:40:17;0.10;;;0.10;;
19505;SDS011;9894;50.852;-0.140;2023-08-08T01:42:47;0.20;;;0.20;;
19505;SDS011;9894;50.852;-0.140;2023-08-08T01:45:15;0.10;;;0.10;;
19505;SDS011;9894;50.852;-0.140;2023-08-08T01:47:41;0.20;;;0.20;;
19505;SDS011;9894;50.852;-0.140;2023-08-08T01:50:07;0.20;;;0.20;;
19505;SDS011;9894;50.852;-0.140;2023-08-08T01:52:34;0.20;;;0.20;;
19505;SDS011;9894;50.852;-0.140;2023-08-08T01:55:00;0.20;;;0.20;;
19505;SDS011;9894;50.852;-0.140;2023-08-08T01:57:26;0.10;;;0.10;;
19505;SDS011;9894;50.852;-0.140;2023-08-08T01:59:52;0.20;;;0.20;;
19505;SDS011;9894;50.852;-0.140;2023-08-08T02:02:18;0.20;;;0.20;;
19505;SDS011;9894;50.852;-0.140;2023-08-08T02:04:45;0.20;;;0.20;;
19505;SDS011;9894;50.852;-0.140;2023-08-08T02:07:11;0.20;;;0.20;;
19505;SDS011;9894;50.852;-0.140;2023-08-08T02:09:37;0.20;;;0.20;;
19505;SDS011;9894;50.852;-0.140;2023-08-08T02:12:03;0.20;;;0.20;;
19505;SDS011;9894;50.852;-0.140;2023-08-08T02:14:29;0.20;;;0.20;;
19505;SDS011;9894;50.852;-0.140;2023-08-08T02:16:55;0.20;;;0.20;;
19505;SDS011;9894;50.852;-0.140;2023-08-08T02:19:29;0.20;;;0.20;;
19505;SDS011;9894;50.852;-0.140;2023-08-08T02:21:55;0.20;;;0.20;;
19505;SDS011;9894;50.852;-0.140;2023-08-08T02:24:21;0.20;;;0.20;;
19505;SDS011;9894;50.852;-0.140;2023-08-08T02:26:47;0.30;;;0.30;;
19505;SDS011;9894;50.852;-0.140;2023-08-08T02:29:13;0.20;;;0.20;;
19505;SDS011;9894;50.852;-0.140;2023-08-08T02:31:39;0.20;;;0.20;;
19505;SDS011;9894;50.852;-0.140;2023-08-08T02:34:05;0.10;;;0.10;;
19505;SDS011;9894;50.852;-0.140;2023-08-08T02:36:32;0.20;;;0.20;;
19505;SDS011;9894;50.852;-0.140;2023-08-08T02:38:58;0.20;;;0.20;;
19505;SDS011;9894;50.852;-0.140;2023-08-08T02:41:24;0.20;;;0.20;;
19505;SDS011;9894;50.852;-0.140;2023-08-08T02:43:50;0.15;;;0.15;;
19505;SDS011;9894;50.852;-0.140;2023-08-08T02:46:16;0.20;;;0.20;;
19505;SDS011;9894;50.852;-0.140;2023-08-08T02:48:42;0.20;;;0.20;;
19505;SDS011;9894;50.852;-0.140;2023-08-08T02:51:08;0.20;;;0.20;;
19505;SDS011;9894;50.852;-0.140;2023-08-08T02:53:35;0.10;;;0.10;;
19505;SDS011;9894;50.852;-0.140;2023-08-08T02:56:01;0.20;;;0.20;;
19505;SDS011;9894;50.852;-0.140;2023-08-08T02:58:27;0.10;;;0.10;;
19505;SDS011;9894;50.852;-0.140;2023-08-08T03:00:53;0.20;;;0.20;;
19505;SDS011;9894;50.852;-0.140;2023-08-08T03:03:19;0.15;;;0.15;;
19505;SDS011;9894;50.852;-0.140;2023-08-08T03:05:45;0.10;;;0.10;;
19505;SDS011;9894;50.852;-0.140;2023-08-08T03:08:11;0.20;;;0.20;;
19505;SDS011;9894;50.852;-0.140;2023-08-08T03:10:37;0.10;;;0.10;;
19505;SDS011;9894;50.852;-0.140;2023-08-08T03:13:04;0.20;;;0.20;;
19505;SDS011;9894;50.852;-0.140;2023-08-08T03:15:30;0.10;;;0.10;;
19505;SDS011;9894;50.852;-0.140;2023-08-08T03:17:56;0.20;;;0.20;;
19505;SDS011;9894;50.852;-0.140;2023-08-08T03:20:22;0.20;;;0.20;;
19505;SDS011;9894;50.852;-0.140;2023-08-08T03:22:48;0.20;;;0.20;;
19505;SDS011;9894;50.852;-0.140;2023-08-08T03:25:14;0.20;;;0.20;;
19505;SDS011;9894;50.852;-0.140;2023-08-08T03:27:42;0.20;;;0.20;;
19505;SDS011;9894;50.852;-0.140;2023-08-08T03:30:09;0.20;;;0.20;;
19505;SDS011;9894;50.852;-0.140;2023-08-08T03:32:35;0.20;;;0.20;;
19505;SDS011;9894;50.852;-0.140;2023-08-08T03:35:01;0.20;;;0.20;;
19505;SDS011;9894;50.852;-0.140;2023-08-08T03:37:28;0.20;;;0.20;;
19505;SDS011;9894;50.852;-0.140;2023-08-08T03:39:54;0.20;;;0.20;;
19505;SDS011;9894;50.852;-0.140;2023-08-08T03:42:20;0.20;;;0.20;;
19505;SDS011;9894;50.852;-0.140;2023-08-08T03:44:46;0.20;;;0.20;;
19505;SDS011;9894;50.852;-0.140;2023-08-08T03:47:12;0.20;;;0.20;;
19505;SDS011;9894;50.852;-0.140;2023-08-08T03:49:38;0.20;;;0.20;;
19505;SDS011;9894;50.852;-0.140;2023-08-08T03:52:05;0.20;;;0.20;;
19505;SDS011;9894;50.852;-0.140;2023-08-08T03:54:31;0.20;;;0.20;;
19505;SDS011;9894;50.852;-0.140;2023-08-08T03:56:57;0.20;;;0.20;;
19505;SDS011;9894;50.852;-0.140;2023-08-08T03:59:23;0.20;;;0.20;;
19505;SDS011;9894;50.852;-0.140;2023-08-08T04:01:49;0.20;;;0.20;;
19505;SDS011;9894;50.852;-0.140;2023-08-08T04:04:15;0.13;;;0.13;;
19505;SDS011;9894;50.852;-0.140;2023-08-08T04:06:41;0.30;;;0.30;;
19505;SDS011;9894;50.852;-0.140;2023-08-08T04:09:07;0.20;;;0.20;;
19505;SDS011;9894;50.852;-0.140;2023-08-08T04:11:33;0.20;;;0.20;;
19505;SDS011;9894;50.852;-0.140;2023-08-08T04:14:01;0.20;;;0.20;;
19505;SDS011;9894;50.852;-0.140;2023-08-08T04:16:27;0.10;;;0.10;;
19505;SDS011;9894;50.852;-0.140;2023-08-08T04:18:53;0.20;;;0.20;;
19505;SDS011;9894;50.852;-0.140;2023-08-08T04:21:19;0.20;;;0.20;;
19505;SDS011;9894;50.852;-0.140;2023-08-08T04:23:45;0.20;;;0.20;;
19505;SDS011;9894;50.852;-0.140;2023-08-08T04:26:11;0.20;;;0.20;;
19505;SDS011;9894;50.852;-0.140;2023-08-08T04:28:39;0.15;;;0.15;;
19505;SDS011;9894;50.852;-0.140;2023-08-08T04:31:05;0.10;;;0.10;;
19505;SDS011;9894;50.852;-0.140;2023-08-08T04:33:31;0.10;;;0.10;;
19505;SDS011;9894;50.852;-0.140;2023-08-08T04:35:58;2.55;;;0.68;;
19505;SDS011;9894;50.852;-0.140;2023-08-08T04:38:24;0.20;;;0.20;;
19505;SDS011;9894;50.852;-0.140;2023-08-08T04:40:50;0.20;;;0.20;;
19505;SDS011;9894;50.852;-0.140;2023-08-08T04:43:16;0.20;;;0.20;;
19505;SDS011;9894;50.852;-0.140;2023-08-08T04:45:42;0.20;;;0.20;;
19505;SDS011;9894;50.852;-0.140;2023-08-08T04:48:08;0.20;;;0.20;;
19505;SDS011;9894;50.852;-0.140;2023-08-08T04:50:34;0.63;;;0.63;;
19505;SDS011;9894;50.852;-0.140;2023-08-08T04:53:00;0.20;;;0.20;;
19505;SDS011;9894;50.852;-0.140;2023-08-08T04:55:26;0.20;;;0.20;;
19505;SDS011;9894;50.852;-0.140;2023-08-08T04:57:52;0.20;;;0.20;;
19505;SDS011;9894;50.852;-0.140;2023-08-08T05:00:18;0.30;;;0.30;;
19505;SDS011;9894;50.852;-0.140;2023-08-08T05:02:45;0.20;;;0.20;;
19505;SDS011;9894;50.852;-0.140;2023-08-08T05:05:11;0.20;;;0.20;;
19505;SDS011;9894;50.852;-0.140;2023-08-08T05:07:37;0.20;;;0.20;;
19505;SDS011;9894;50.852;-0.140;2023-08-08T05:10:03;0.20;;;0.20;;
19505;SDS011;9894;50.852;-0.140;2023-08-08T05:12:29;0.30;;;0.30;;
19505;SDS011;9894;50.852;-0.140;2023-08-08T05:14:56;0.20;;;0.20;;
19505;SDS011;9894;50.852;-0.140;2023-08-08T05:17:22;0.25;;;0.25;;
19505;SDS011;9894;50.852;-0.140;2023-08-08T05:19:48;0.30;;;0.30;;
19505;SDS011;9894;50.852;-0.140;2023-08-08T05:22:14;0.30;;;0.30;;
19505;SDS011;9894;50.852;-0.140;2023-08-08T05:24:40;0.30;;;0.30;;
19505;SDS011;9894;50.852;-0.140;2023-08-08T05:27:06;0.30;;;0.30;;
19505;SDS011;9894;50.852;-0.140;2023-08-08T05:29:32;0.30;;;0.30;;
19505;SDS011;9894;50.852;-0.140;2023-08-08T05:32:03;0.40;;;0.40;;
19505;SDS011;9894;50.852;-0.140;2023-08-08T05:34:31;0.20;;;0.20;;
19505;SDS011;9894;50.852;-0.140;2023-08-08T05:36:58;0.30;;;0.30;;
19505;SDS011;9894;50.852;-0.140;2023-08-08T05:39:24;0.30;;;0.30;;
19505;SDS011;9894;50.852;-0.140;2023-08-08T05:41:50;0.40;;;0.40;;
19505;SDS011;9894;50.852;-0.140;2023-08-08T05:44:16;0.30;;;0.30;;
19505;SDS011;9894;50.852;-0.140;2023-08-08T05:46:42;0.35;;;0.35;;
19505;SDS011;9894;50.852;-0.140;2023-08-08T05:49:08;0.32;;;0.32;;
19505;SDS011;9894;50.852;-0.140;2023-08-08T05:51:34;0.38;;;0.38;;
19505;SDS011;9894;50.852;-0.140;2023-08-08T05:54:00;0.55;;;0.55;;
19505;SDS011;9894;50.852;-0.140;2023-08-08T05:56:37;0.30;;;0.30;;
19505;SDS011;9894;50.852;-0.140;2023-08-08T05:59:03;0.50;;;0.50;;
19505;SDS011;9894;50.852;-0.140;2023-08-08T06:01:30;0.30;;;0.30;;
19505;SDS011;9894;50.852;-0.140;2023-08-08T06:03:57;0.20;;;0.20;;
19505;SDS011;9894;50.852;-0.140;2023-08-08T06:06:24;0.35;;;0.35;;
19505;SDS011;9894;50.852;-0.140;2023-08-08T06:08:50;0.30;;;0.30;;
19505;SDS011;9894;50.852;-0.140;2023-08-08T06:11:17;0.30;;;0.30;;
19505;SDS011;9894;50.852;-0.140;2023-08-08T06:13:43;0.30;;;0.30;;
19505;SDS011;9894;50.852;-0.140;2023-08-08T06:16:09;0.30;;;0.30;;
19505;SDS011;9894;50.852;-0.140;2023-08-08T06:18:35;0.40;;;0.40;;
19505;SDS011;9894;50.852;-0.140;2023-08-08T06:21:02;0.30;;;0.30;;
19505;SDS011;9894;50.852;-0.140;2023-08-08T06:23:28;0.43;;;0.43;;
19505;SDS011;9894;50.852;-0.140;2023-08-08T06:25:54;0.30;;;0.30;;
19505;SDS011;9894;50.852;-0.140;2023-08-08T06:28:20;0.30;;;0.30;;
19505;SDS011;9894;50.852;-0.140;2023-08-08T06:30:46;0.30;;;0.30;;
19505;SDS011;9894;50.852;-0.140;2023-08-08T06:33:12;0.40;;;0.40;;
19505;SDS011;9894;50.852;-0.140;2023-08-08T06:35:38;0.40;;;0.40;;
19505;SDS011;9894;50.852;-0.140;2023-08-08T06:38:04;0.40;;;0.40;;
19505;SDS011;9894;50.852;-0.140;2023-08-08T06:40:30;0.40;;;0.40;;
19505;SDS011;9894;50.852;-0.140;2023-08-08T06:42:57;0.30;;;0.30;;
19505;SDS011;9894;50.852;-0.140;2023-08-08T06:45:23;6.22;;;0.73;;
19505;SDS011;9894;50.852;-0.140;2023-08-08T06:47:49;0.45;;;0.45;;
19505;SDS011;9894;50.852;-0.140;2023-08-08T06:50:15;0.40;;;0.40;;
19505;SDS011;9894;50.852;-0.140;2023-08-08T06:52:42;0.45;;;0.45;;
19505;SDS011;9894;50.852;-0.140;2023-08-08T06:55:08;2.42;;;1.13;;
19505;SDS011;9894;50.852;-0.140;2023-08-08T06:57:34;0.30;;;0.30;;
19505;SDS011;9894;50.852;-0.140;2023-08-08T07:00:01;0.30;;;0.30;;
19505;SDS011;9894;50.852;-0.140;2023-08-08T07:02:30;0.60;;;0.60;;
19505;SDS011;9894;50.852;-0.140;2023-08-08T07:04:56;0.60;;;0.60;;
19505;SDS011;9894;50.852;-0.140;2023-08-08T07:07:22;0.40;;;0.40;;
19505;SDS011;9894;50.852;-0.140;2023-08-08T07:09:48;0.40;;;0.40;;
19505;SDS011;9894;50.852;-0.140;2023-08-08T07:12:14;0.40;;;0.40;;
19505;SDS011;9894;50.852;-0.140;2023-08-08T07:14:40;0.40;;;0.40;;
19505;SDS011;9894;50.852;-0.140;2023-08-08T07:17:06;0.40;;;0.40;;
19505;SDS011;9894;50.852;-0.140;2023-08-08T07:19:32;0.40;;;0.40;;
19505;SDS011;9894;50.852;-0.140;2023-08-08T07:21:58;0.60;;;0.60;;
19505;SDS011;9894;50.852;-0.140;2023-08-08T07:24:24;0.50;;;0.50;;
19505;SDS011;9894;50.852;-0.140;2023-08-08T07:26:54;0.60;;;0.60;;
19505;SDS011;9894;50.852;-0.140;2023-08-08T07:29:20;0.50;;;0.50;;
19505;SDS011;9894;50.852;-0.140;2023-08-08T07:31:46;0.50;;;0.50;;
19505;SDS011;9894;50.852;-0.140;2023-08-08T07:34:12;0.60;;;0.60;;
19505;SDS011;9894;50.852;-0.140;2023-08-08T07:36:38;0.60;;;0.60;;
19505;SDS011;9894;50.852;-0.140;2023-08-08T07:39:04;0.40;;;0.40;;
19505;SDS011;9894;50.852;-0.140;2023-08-08T07:41:30;0.55;;;0.55;;
19505;SDS011;9894;50.852;-0.140;2023-08-08T07:43:57;0.60;;;0.60;;
19505;SDS011;9894;50.852;-0.140;2023-08-08T07:46:23;0.65;;;0.65;;
19505;SDS011;9894;50.852;-0.140;2023-08-08T07:48:49;0.60;;;0.60;;
19505;SDS011;9894;50.852;-0.140;2023-08-08T07:51:15;0.50;;;0.50;;
19505;SDS011;9894;50.852;-0.140;2023-08-08T07:53:41;0.60;;;0.60;;
19505;SDS011;9894;50.852;-0.140;2023-08-08T07:56:07;0.60;;;0.60;;
19505;SDS011;9894;50.852;-0.140;2023-08-08T07:58:33;0.70;;;0.70;;
19505;SDS011;9894;50.852;-0.140;2023-08-08T08:00:59;0.70;;;0.70;;
19505;SDS011;9894;50.852;-0.140;2023-08-08T08:03:26;0.70;;;0.70;;
19505;SDS011;9894;50.852;-0.140;2023-08-08T08:05:52;0.70;;;0.70;;
19505;SDS011;9894;50.852;-0.140;2023-08-08T08:08:18;0.90;;;0.90;;
19505;SDS011;9894;50.852;-0.140;2023-08-08T08:10:46;1.10;;;1.10;;
19505;SDS011;9894;50.852;-0.140;2023-08-08T08:13:13;1.00;;;1.00;;
19505;SDS011;9894;50.852;-0.140;2023-08-08T08:15:40;3.40;;;1.10;;
19505;SDS011;9894;50.852;-0.140;2023-08-08T08:18:06;1.00;;;1.00;;
19505;SDS011;9894;50.852;-0.140;2023-08-08T08:20:32;1.10;;;1.10;;
19505;SDS011;9894;50.852;-0.140;2023-08-08T08:22:59;1.15;;;1.15;;
19505;SDS011;9894;50.852;-0.140;2023-08-08T08:25:25;1.33;;;1.33;;
19505;SDS011;9894;50.852;-0.140;2023-08-08T08:27:51;1.30;;;1.30;;
19505;SDS011;9894;50.852;-0.140;2023-08-08T08:30:17;1.52;;;1.52;;
19505;SDS011;9894;50.852;-0.140;2023-08-08T08:32:44;1.30;;;1.30;;
19505;SDS011;9894;50.852;-0.140;2023-08-08T08:35:10;1.30;;;1.30;;
19505;SDS011;9894;50.852;-0.140;2023-08-08T08:37:38;1.10;;;1.10;;
19505;SDS011;9894;50.852;-0.140;2023-08-08T08:40:04;1.00;;;1.00;;
19505;SDS011;9894;50.852;-0.140;2023-08-08T08:42:31;2.75;;;1.50;;
19505;SDS011;9894;50.852;-0.140;2023-08-08T08:44:58;1.08;;;1.08;;
19505;SDS011;9894;50.852;-0.140;2023-08-08T08:47:25;1.10;;;1.10;;
19505;SDS011;9894;50.852;-0.140;2023-08-08T08:49:52;1.13;;;1.13;;
19505;SDS011;9894;50.852;-0.140;2023-08-08T08:52:18;1.20;;;1.20;;
19505;SDS011;9894;50.852;-0.140;2023-08-08T08:54:52;1.20;;;1.20;;
19505;SDS011;9894;50.852;-0.140;2023-08-08T08:57:20;1.20;;;1.20;;
19505;SDS011;9894;50.852;-0.140;2023-08-08T08:59:47;1.13;;;1.13;;
19505;SDS011;9894;50.852;-0.140;2023-08-08T09:02:13;1.20;;;1.20;;
19505;SDS011;9894;50.852;-0.140;2023-08-08T09:04:40;1.17;;;1.17;;
19505;SDS011;9894;50.852;-0.140;2023-08-08T09:07:06;0.93;;;0.93;;
19505;SDS011;9894;50.852;-0.140;2023-08-08T09:09:32;1.00;;;1.00;;
19505;SDS011;9894;50.852;-0.140;2023-08-08T09:11:59;1.05;;;1.05;;
19505;SDS011;9894;50.852;-0.140;2023-08-08T09:14:25;3.10;;;1.98;;
19505;SDS011;9894;50.852;-0.140;2023-08-08T09:16:55;2.28;;;1.98;;
19505;SDS011;9894;50.852;-0.140;2023-08-08T09:19:22;1.15;;;1.15;;
19505;SDS011;9894;50.852;-0.140;2023-08-08T09:21:49;1.00;;;1.00;;
19505;SDS011;9894;50.852;-0.140;2023-08-08T09:24:15;1.02;;;1.02;;
19505;SDS011;9894;50.852;-0.140;2023-08-08T09:26:42;1.00;;;1.00;;
19505;SDS011;9894;50.852;-0.140;2023-08-08T09:29:09;1.00;;;1.00;;
19505;SDS011;9894;50.852;-0.140;2023-08-08T09:34:58;0.90;;;0.90;;
19505;SDS011;9894;50.852;-0.140;2023-08-08T09:37:25;1.13;;;1.10;;
19505;SDS011;9894;50.852;-0.140;2023-08-08T09:40:01;1.52;;;1.15;;
19505;SDS011;9894;50.852;-0.140;2023-08-08T09:42:29;0.90;;;0.90;;
19505;SDS011;9894;50.852;-0.140;2023-08-08T09:44:56;0.80;;;0.80;;
19505;SDS011;9894;50.852;-0.140;2023-08-08T09:47:24;0.68;;;0.68;;
19505;SDS011;9894;50.852;-0.140;2023-08-08T09:49:50;0.80;;;0.80;;
19505;SDS011;9894;50.852;-0.140;2023-08-08T09:52:16;0.70;;;0.70;;
19505;SDS011;9894;50.852;-0.140;2023-08-08T09:54:43;6.20;;;1.35;;
19505;SDS011;9894;50.852;-0.140;2023-08-08T09:57:09;1.52;;;0.90;;
19505;SDS011;9894;50.852;-0.140;2023-08-08T09:59:35;0.50;;;0.50;;
19505;SDS011;9894;50.852;-0.140;2023-08-08T10:02:02;0.30;;;0.30;;
19505;SDS011;9894;50.852;-0.140;2023-08-08T10:04:31;0.50;;;0.50;;
19505;SDS011;9894;50.852;-0.140;2023-08-08T10:06:58;0.30;;;0.30;;
19505;SDS011;9894;50.852;-0.140;2023-08-08T10:09:24;0.30;;;0.30;;
19505;SDS011;9894;50.852;-0.140;2023-08-08T10:11:50;0.30;;;0.30;;
19505;SDS011;9894;50.852;-0.140;2023-08-08T10:14:21;0.30;;;0.30;;
19505;SDS011;9894;50.852;-0.140;2023-08-08T10:16:55;0.35;;;0.35;;
19505;SDS011;9894;50.852;-0.140;2023-08-08T10:19:21;0.40;;;0.40;;
19505;SDS011;9894;50.852;-0.140;2023-08-08T10:21:47;0.20;;;0.20;;
19505;SDS011;9894;50.852;-0.140;2023-08-08T10:24:14;0.45;;;0.45;;
19505;SDS011;9894;50.852;-0.140;2023-08-08T10:26:52;0.30;;;0.30;;
19505;SDS011;9894;50.852;-0.140;2023-08-08T10:29:19;0.30;;;0.30;;
19505;SDS011;9894;50.852;-0.140;2023-08-08T10:31:52;0.20;;;0.20;;
19505;SDS011;9894;50.852;-0.140;2023-08-08T10:34:20;0.30;;;0.30;;
19505;SDS011;9894;50.852;-0.140;2023-08-08T10:36:50;0.30;;;0.30;;
19505;SDS011;9894;50.852;-0.140;2023-08-08T10:39:18;0.20;;;0.20;;
19505;SDS011;9894;50.852;-0.140;2023-08-08T10:41:48;0.63;;;0.63;;
19505;SDS011;9894;50.852;-0.140;2023-08-08T10:44:20;0.35;;;0.35;;
19505;SDS011;9894;50.852;-0.140;2023-08-08T10:46:47;5.43;;;0.60;;
19505;SDS011;9894;50.852;-0.140;2023-08-08T10:49:13;2.47;;;0.95;;
19505;SDS011;9894;50.852;-0.140;2023-08-08T10:56:49;2.42;;;0.70;;
19505;SDS011;9894;50.852;-0.140;2023-08-08T10:59:17;0.40;;;0.40;;
19505;SDS011;9894;50.852;-0.140;2023-08-08T11:01:47;0.60;;;0.52;;
19505;SDS011;9894;50.852;-0.140;2023-08-08T11:04:15;0.60;;;0.47;;
19505;SDS011;9894;50.852;-0.140;2023-08-08T11:06:41;0.40;;;0.40;;
19505;SDS011;9894;50.852;-0.140;2023-08-08T11:09:07;4.38;;;0.93;;
19505;SDS011;9894;50.852;-0.140;2023-08-08T11:11:44;0.22;;;0.22;;
19505;SDS011;9894;50.852;-0.140;2023-08-08T11:16:37;0.88;;;0.68;;
19505;SDS011;9894;50.852;-0.140;2023-08-08T11:19:10;10.25;;;0.85;;
19505;SDS011;9894;50.852;-0.140;2023-08-08T11:21:39;0.30;;;0.30;;
19505;SDS011;9894;50.852;-0.140;2023-08-08T11:24:06;0.30;;;0.30;;
19505;SDS011;9894;50.852;-0.140;2023-08-08T11:26:36;1.98;;;1.15;;
19505;SDS011;9894;50.852;-0.140;2023-08-08T11:29:03;0.30;;;0.30;;
19505;SDS011;9894;50.852;-0.140;2023-08-08T11:31:30;0.50;;;0.50;;
19505;SDS011;9894;50.852;-0.140;2023-08-08T11:33:58;0.30;;;0.30;;
19505;SDS011;9894;50.852;-0.140;2023-08-08T11:36:24;0.40;;;0.40;;
19505;SDS011;9894;50.852;-0.140;2023-08-08T11:38:51;0.70;;;0.70;;
19505;SDS011;9894;50.852;-0.140;2023-08-08T11:41:18;4.57;;;0.50;;
19505;SDS011;9894;50.852;-0.140;2023-08-08T11:43:46;0.95;;;0.73;;
19505;SDS011;9894;50.852;-0.140;2023-08-08T11:46:13;0.52;;;0.52;;
19505;SDS011;9894;50.852;-0.140;2023-08-08T11:48:39;3.92;;;0.57;;
19505;SDS011;9894;50.852;-0.140;2023-08-08T11:51:06;0.30;;;0.30;;
19505;SDS011;9894;50.852;-0.140;2023-08-08T11:53:32;5.00;;;1.27;;
19505;SDS011;9894;50.852;-0.140;2023-08-08T11:55:59;0.30;;;0.30;;
19505;SDS011;9894;50.852;-0.140;2023-08-08T11:58:25;2.35;;;0.63;;
19505;SDS011;9894;50.852;-0.140;2023-08-08T12:00:52;0.40;;;0.40;;
19505;SDS011;9894;50.852;-0.140;2023-08-08T12:03:20;0.55;;;0.55;;
19505;SDS011;9894;50.852;-0.140;2023-08-08T12:05:46;0.55;;;0.50;;
19505;SDS011;9894;50.852;-0.140;2023-08-08T12:08:12;0.30;;;0.30;;
19505;SDS011;9894;50.852;-0.140;2023-08-08T12:10:40;1.05;;;0.47;;
19505;SDS011;9894;50.852;-0.140;2023-08-08T12:13:13;0.40;;;0.40;;
19505;SDS011;9894;50.852;-0.140;2023-08-08T12:15:39;3.08;;;0.85;;
19505;SDS011;9894;50.852;-0.140;2023-08-08T12:18:08;0.47;;;0.47;;
19505;SDS011;9894;50.852;-0.140;2023-08-08T12:20:34;0.65;;;0.65;;
19505;SDS011;9894;50.852;-0.140;2023-08-08T12:23:00;3.20;;;1.08;;
19505;SDS011;9894;50.852;-0.140;2023-08-08T12:25:27;2.30;;;1.05;;
19505;SDS011;9894;50.852;-0.140;2023-08-08T12:27:53;0.75;;;0.70;;
19505;SDS011;9894;50.852;-0.140;2023-08-08T12:30:19;0.32;;;0.32;;
19505;SDS011;9894;50.852;-0.140;2023-08-08T12:32:45;3.00;;;0.73;;
19505;SDS011;9894;50.852;-0.140;2023-08-08T12:35:11;0.22;;;0.22;;
19505;SDS011;9894;50.852;-0.140;2023-08-08T12:37:37;0.60;;;0.60;;
19505;SDS011;9894;50.852;-0.140;2023-08-08T12:40:04;0.60;;;0.57;;
19505;SDS011;9894;50.852;-0.140;2023-08-08T12:42:31;2.83;;;1.33;;
19505;SDS011;9894;50.852;-0.140;2023-08-08T12:44:57;1.52;;;0.70;;
19505;SDS011;9894;50.852;-0.140;2023-08-08T12:47:23;0.68;;;0.68;;
19505;SDS011;9894;50.852;-0.140;2023-08-08T12:49:49;1.70;;;0.60;;
19505;SDS011;9894;50.852;-0.140;2023-08-08T12:52:15;1.42;;;1.33;;
19505;SDS011;9894;50.852;-0.140;2023-08-08T12:54:41;2.42;;;0.50;;
19505;SDS011;9894;50.852;-0.140;2023-08-08T12:57:07;1.50;;;0.70;;
19505;SDS011;9894;50.852;-0.140;2023-08-08T12:59:34;19.58;;;0.65;;
19505;SDS011;9894;50.852;-0.140;2023-08-08T13:02:00;5.88;;;0.95;;
19505;SDS011;9894;50.852;-0.140;2023-08-08T13:04:26;6.78;;;1.42;;
19505;SDS011;9894;50.852;-0.140;2023-08-08T13:06:52;0.80;;;0.80;;
19505;SDS011;9894;50.852;-0.140;2023-08-08T13:09:19;0.52;;;0.52;;
19505;SDS011;9894;50.852;-0.140;2023-08-08T13:11:45;2.72;;;0.50;;
19505;SDS011;9894;50.852;-0.140;2023-08-08T13:14:11;1.85;;;1.13;;
19505;SDS011;9894;50.852;-0.140;2023-08-08T13:16:37;3.45;;;0.88;;
19505;SDS011;9894;50.852;-0.140;2023-08-08T13:19:03;1.38;;;0.98;;
19505;SDS011;9894;50.852;-0.140;2023-08-08T13:21:30;0.60;;;0.60;;
19505;SDS011;9894;50.852;-0.140;2023-08-08T13:23:57;0.52;;;0.43;;
19505;SDS011;9894;50.852;-0.140;2023-08-08T13:26:23;6.05;;;1.02;;
19505;SDS011;9894;50.852;-0.140;2023-08-08T13:28:49;1.55;;;0.75;;
19505;SDS011;9894;50.852;-0.140;2023-08-08T13:31:15;0.20;;;0.20;;
19505;SDS011;9894;50.852;-0.140;2023-08-08T13:33:42;0.25;;;0.25;;
19505;SDS011;9894;50.852;-0.140;2023-08-08T13:36:08;1.95;;;0.85;;
19505;SDS011;9894;50.852;-0.140;2023-08-08T13:38:34;9.82;;;1.17;;
19505;SDS011;9894;50.852;-0.140;2023-08-08T13:41:00;0.50;;;0.50;;
19505;SDS011;9894;50.852;-0.140;2023-08-08T13:43:26;0.50;;;0.50;;
19505;SDS011;9894;50.852;-0.140;2023-08-08T13:45:54;0.75;;;0.55;;
19505;SDS011;9894;50.852;-0.140;2023-08-08T13:48:20;1.13;;;0.50;;
19505;SDS011;9894;50.852;-0.140;2023-08-08T13:50:46;1.23;;;0.70;;
19505;SDS011;9894;50.852;-0.140;2023-08-08T13:53:13;0.40;;;0.40;;
19505;SDS011;9894;50.852;-0.140;2023-08-08T13:55:39;8.23;;;1.52;;
19505;SDS011;9894;50.852;-0.140;2023-08-08T13:58:06;1.02;;;0.47;;
19505;SDS011;9894;50.852;-0.140;2023-08-08T14:00:32;2.13;;;1.27;;
19505;SDS011;9894;50.852;-0.140;2023-08-08T14:02:58;0.28;;;0.28;;
19505;SDS011;9894;50.852;-0.140;2023-08-08T14:05:25;1.20;;;0.75;;
19505;SDS011;9894;50.852;-0.140;2023-08-08T14:07:52;4.85;;;0.60;;
19505;SDS011;9894;50.852;-0.140;2023-08-08T14:10:18;0.20;;;0.20;;
19505;SDS011;9894;50.852;-0.140;2023-08-08T14:12:44;0.30;;;0.30;;
19505;SDS011;9894;50.852;-0.140;2023-08-08T14:15:11;7.50;;;0.55;;
19505;SDS011;9894;50.852;-0.140;2023-08-08T14:17:37;4.70;;;0.70;;
19505;SDS011;9894;50.852;-0.140;2023-08-08T14:20:06;0.55;;;0.55;;
19505;SDS011;9894;50.852;-0.140;2023-08-08T14:22:33;0.43;;;0.43;;
19505;SDS011;9894;50.852;-0.140;2023-08-08T14:24:59;0.57;;;0.30;;
19505;SDS011;9894;50.852;-0.140;2023-08-08T14:27:26;2.35;;;0.75;;
19505;SDS011;9894;50.852;-0.140;2023-08-08T14:29:52;0.82;;;0.52;;
19505;SDS011;9894;50.852;-0.140;2023-08-08T14:32:18;0.20;;;0.20;;
19505;SDS011;9894;50.852;-0.140;2023-08-08T14:34:44;4.00;;;1.25;;
19505;SDS011;9894;50.852;-0.140;2023-08-08T14:37:10;1.42;;;1.13;;
19505;SDS011;9894;50.852;-0.140;2023-08-08T14:39:37;2.17;;;1.60;;
19505;SDS011;9894;50.852;-0.140;2023-08-08T14:42:03;1.55;;;0.52;;
19505;SDS011;9894;50.852;-0.140;2023-08-08T14:44:29;0.20;;;0.20;;
19505;SDS011;9894;50.852;-0.140;2023-08-08T14:46:55;4.10;;;1.23;;
19505;SDS011;9894;50.852;-0.140;2023-08-08T14:49:21;3.17;;;1.13;;
19505;SDS011;9894;50.852;-0.140;2023-08-08T14:51:50;1.00;;;0.73;;
19505;SDS011;9894;50.852;-0.140;2023-08-08T14:54:16;17.60;;;1.02;;
19505;SDS011;9894;50.852;-0.140;2023-08-08T14:56:42;1.35;;;0.90;;
19505;SDS011;9894;50.852;-0.140;2023-08-08T14:59:08;0.43;;;0.38;;
19505;SDS011;9894;50.852;-0.140;2023-08-08T15:01:35;4.10;;;1.27;;